createdAt,value
2018-05-12T00:00:01.695Z,26.70
2018-05-12T00:02:29.159Z,25.50
2018-05-12T00:04:56.619Z,27.23
2018-05-12T00:07:24.052Z,29.97
2018-05-12T00:09:51.506Z,30.90
2018-05-12T00:12:18.954Z,24.13
2018-05-12T00:14:46.410Z,19.80
2018-05-12T00:17:13.869Z,27.50
2018-05-12T00:19:41.330Z,24.73
2018-05-12T00:22:08.800Z,27.63
2018-05-12T00:24:36.241Z,29.33
2018-05-12T00:27:03.698Z,29.37
2018-05-12T00:29:31.141Z,27.07
2018-05-12T00:31:58.591Z,30.97
2018-05-12T00:34:26.046Z,33.90
2018-05-12T00:36:53.559Z,30.70
2018-05-12T00:39:21.001Z,32.67
2018-05-12T00:41:48.441Z,33.17
2018-05-12T00:44:15.887Z,28.57
2018-05-12T00:46:43.470Z,34.17
2018-05-12T00:49:10.910Z,35.33
2018-05-12T00:51:38.351Z,29.93
2018-05-12T00:54:05.796Z,28.17
2018-05-12T00:56:33.325Z,31.97
2018-05-12T00:59:00.887Z,34.37
2018-05-12T01:01:28.335Z,35.70
2018-05-12T01:03:55.902Z,33.50
2018-05-12T01:06:23.448Z,35.37
2018-05-12T01:08:50.923Z,35.23
2018-05-12T01:11:18.470Z,27.87
2018-05-12T01:13:45.991Z,37.93
2018-05-12T01:16:13.443Z,30.13
2018-05-12T01:18:40.871Z,37.17
2018-05-12T01:21:08.303Z,32.87
2018-05-12T01:23:35.849Z,36.10
2018-05-12T01:26:03.281Z,35.17
2018-05-12T01:28:30.728Z,34.03
2018-05-12T01:30:58.232Z,37.77
2018-05-12T01:33:25.675Z,30.57
2018-05-12T01:35:53.127Z,35.73
2018-05-12T01:38:21.565Z,32.37
2018-05-12T01:40:49.027Z,38.60
2018-05-12T01:43:16.463Z,37.40
2018-05-12T01:45:43.887Z,39.17
2018-05-12T01:48:11.321Z,40.57
2018-05-12T01:50:38.794Z,25.90
2018-05-12T01:53:06.238Z,33.33
2018-05-12T01:55:33.677Z,23.03
2018-05-12T01:58:01.131Z,29.63
2018-05-12T02:00:28.648Z,25.70
2018-05-12T02:02:56.125Z,31.20
2018-05-12T02:05:23.610Z,28.13
2018-05-12T02:07:51.062Z,29.83
2018-05-12T02:10:18.516Z,30.57
2018-05-12T02:12:45.952Z,28.43
2018-05-12T02:15:13.599Z,35.80
2018-05-12T02:17:41.043Z,30.00
2018-05-12T02:20:08.606Z,36.97
2018-05-12T02:22:36.054Z,35.73
2018-05-12T02:25:03.626Z,35.43
2018-05-12T02:27:31.055Z,34.67
2018-05-12T02:29:58.537Z,30.10
2018-05-12T02:32:25.993Z,33.03
2018-05-12T02:34:53.458Z,25.87
2018-05-12T02:37:20.911Z,26.30
2018-05-12T02:39:48.360Z,32.90
2018-05-12T02:42:15.820Z,27.97
2018-05-12T02:44:43.278Z,32.00
2018-05-12T02:47:10.741Z,27.37
2018-05-12T02:49:38.188Z,24.70
2018-05-12T02:52:05.644Z,23.97
2018-05-12T02:57:06.846Z,30.03
2018-05-12T02:59:34.318Z,27.53
2018-05-12T03:02:01.754Z,26.53
2018-05-12T03:04:29.467Z,32.00
2018-05-12T03:06:56.933Z,35.87
2018-05-12T03:09:24.371Z,31.23
2018-05-12T03:11:51.810Z,36.20
2018-05-12T03:14:19.251Z,35.60
2018-05-12T03:16:46.706Z,29.40
2018-05-12T03:19:14.226Z,33.10
2018-05-12T03:21:41.675Z,29.50
2018-05-12T03:24:09.141Z,34.77
2018-05-12T03:26:36.584Z,35.67
2018-05-12T03:29:04.026Z,37.40
2018-05-12T03:31:31.509Z,33.13
2018-05-12T03:33:58.971Z,36.40
2018-05-12T03:36:26.479Z,35.63
2018-05-12T03:38:53.944Z,29.63
2018-05-12T03:41:21.397Z,28.43
2018-05-12T03:43:48.923Z,32.53
2018-05-12T03:46:16.454Z,30.40
2018-05-12T03:48:44.391Z,33.77
2018-05-12T03:51:11.842Z,33.97
2018-05-12T03:53:39.277Z,34.83
2018-05-12T03:56:06.722Z,35.80
2018-05-12T03:58:34.157Z,35.47
2018-05-12T04:01:01.602Z,37.17
2018-05-12T04:03:29.070Z,29.83
2018-05-12T04:06:08.406Z,38.37
2018-05-12T04:08:47.653Z,37.67
2018-05-12T04:11:26.846Z,38.57
2018-05-12T04:13:54.279Z,40.97
2018-05-12T04:16:21.715Z,35.40
2018-05-12T04:18:49.193Z,39.03
2018-05-12T04:21:16.630Z,38.93
2018-05-12T04:23:44.073Z,40.67
2018-05-12T04:26:11.518Z,39.33
2018-05-12T04:28:38.961Z,41.10
2018-05-12T04:31:06.398Z,39.10
2018-05-12T04:33:33.890Z,39.57
2018-05-12T04:36:01.330Z,40.17
2018-05-12T04:38:28.777Z,40.27
2018-05-12T04:40:56.245Z,38.43
2018-05-12T04:43:23.703Z,37.50
2018-05-12T04:45:51.189Z,42.17
2018-05-12T04:48:18.827Z,33.57
2018-05-12T04:50:46.259Z,43.97
2018-05-12T04:53:13.706Z,44.67
2018-05-12T04:55:41.158Z,40.13
2018-05-12T04:58:08.614Z,41.27
2018-05-12T05:00:36.047Z,46.43
2018-05-12T05:03:03.573Z,38.40
2018-05-12T05:05:31.011Z,42.57
2018-05-12T05:07:58.548Z,39.33
2018-05-12T05:10:26.003Z,44.30
2018-05-12T05:12:53.449Z,35.60
2018-05-12T05:15:21.103Z,40.93
2018-05-12T05:17:48.527Z,41.27
2018-05-12T05:20:15.989Z,39.87
2018-05-12T05:22:43.437Z,39.87
2018-05-12T05:25:10.934Z,42.17
2018-05-12T05:27:38.346Z,35.83
2018-05-12T05:30:05.800Z,44.70
2018-05-12T05:32:33.243Z,43.00
2018-05-12T05:35:00.704Z,41.63
2018-05-12T05:37:28.171Z,43.53
2018-05-12T05:39:55.622Z,41.50
2018-05-12T05:42:23.064Z,39.83
2018-05-12T05:44:50.522Z,39.07
2018-05-12T05:47:18.136Z,43.37
2018-05-12T05:49:45.728Z,36.27
2018-05-12T05:52:13.212Z,41.40
2018-05-12T05:54:40.778Z,28.93
2018-05-12T05:57:08.251Z,42.70
2018-05-12T05:59:35.734Z,39.73
2018-05-12T06:02:03.201Z,21.80
2018-05-12T06:04:30.649Z,29.90
2018-05-12T06:06:58.095Z,38.83
2018-05-12T06:09:25.653Z,35.93
2018-05-12T06:11:54.282Z,25.90
2018-05-12T06:14:21.811Z,39.97
2018-05-12T06:16:49.284Z,37.30
2018-05-12T06:19:16.750Z,41.90
2018-05-12T06:21:44.193Z,52.10
2018-05-12T06:24:11.640Z,47.30
2018-05-12T06:26:39.081Z,37.50
2018-05-12T06:29:06.538Z,42.10
2018-05-12T06:31:34.078Z,43.63
2018-05-12T06:34:01.624Z,40.87
2018-05-12T06:36:29.066Z,29.43
2018-05-12T06:38:56.517Z,46.43
2018-05-12T06:41:23.983Z,34.33
2018-05-12T06:43:51.438Z,21.37
2018-05-12T06:46:18.898Z,34.47
2018-05-12T06:48:46.344Z,30.63
2018-05-12T06:51:13.787Z,40.73
2018-05-12T06:53:41.220Z,48.80
2018-05-12T06:56:08.671Z,37.73
2018-05-12T06:58:36.115Z,29.20
2018-05-12T07:01:03.552Z,41.17
2018-05-12T07:03:30.993Z,34.77
2018-05-12T07:05:58.444Z,47.73
2018-05-12T07:08:25.943Z,26.50
2018-05-12T07:10:53.391Z,41.63
2018-05-12T07:13:20.845Z,41.93
2018-05-12T07:15:48.388Z,29.30
2018-05-12T07:18:15.834Z,42.90
2018-05-12T07:20:43.286Z,37.90
2018-05-12T07:23:10.737Z,33.80
2018-05-12T07:25:38.193Z,39.67
2018-05-12T07:28:05.751Z,46.03
2018-05-12T07:30:33.186Z,43.10
2018-05-12T07:33:00.724Z,26.30
2018-05-12T07:35:28.179Z,42.10
2018-05-12T07:37:55.617Z,38.93
2018-05-12T07:40:23.068Z,49.93
2018-05-12T07:42:50.498Z,41.83
2018-05-12T07:45:18.016Z,44.13
2018-05-12T07:47:45.548Z,40.00
2018-05-12T07:50:12.986Z,45.63
2018-05-12T07:52:40.430Z,24.33
2018-05-12T07:55:07.870Z,39.50
2018-05-12T07:57:35.387Z,41.90
2018-05-12T08:00:02.829Z,32.33
2018-05-12T08:02:30.389Z,27.07
2018-05-12T08:04:57.837Z,31.40
2018-05-12T08:07:25.273Z,42.30
2018-05-12T08:09:52.724Z,29.40
2018-05-12T08:12:20.289Z,30.43
2018-05-12T08:14:47.729Z,28.33
2018-05-12T08:17:15.245Z,30.27
2018-05-12T08:19:42.707Z,41.70
2018-05-12T08:22:10.154Z,43.17
2018-05-12T08:24:37.576Z,39.80
2018-05-12T08:27:05.048Z,41.47
2018-05-12T08:29:32.525Z,34.40
2018-05-12T08:31:59.956Z,38.53
2018-05-12T08:34:27.401Z,39.57
2018-05-12T08:36:54.841Z,28.40
2018-05-12T08:39:22.281Z,33.67
2018-05-12T08:41:50.227Z,31.03
2018-05-12T08:44:17.674Z,37.33
2018-05-12T08:46:45.121Z,22.27
2018-05-12T08:49:12.552Z,35.63
2018-05-12T08:51:40.039Z,25.00
2018-05-12T08:54:07.502Z,28.70
2018-05-12T08:56:34.970Z,30.13
2018-05-12T08:59:02.408Z,29.20
2018-05-12T09:01:29.885Z,38.40
2018-05-12T09:03:57.319Z,25.70
2018-05-12T09:06:24.783Z,32.83
2018-05-12T09:08:52.269Z,27.20
2018-05-12T09:11:19.875Z,24.97
2018-05-12T09:13:47.360Z,23.87
2018-05-12T09:16:14.817Z,29.40
2018-05-12T09:18:42.283Z,25.80
2018-05-12T09:21:09.842Z,28.73
2018-05-12T09:23:37.289Z,24.20
2018-05-12T09:26:05.418Z,28.17
2018-05-12T09:28:32.931Z,22.03
2018-05-12T09:31:00.377Z,22.33
2018-05-12T09:33:27.937Z,31.13
2018-05-12T09:35:55.393Z,18.17
2018-05-12T09:38:22.930Z,34.00
2018-05-12T09:40:50.398Z,32.33
2018-05-12T09:43:17.851Z,29.30
2018-05-12T09:45:45.290Z,34.43
2018-05-12T09:48:12.732Z,23.17
2018-05-12T09:50:40.260Z,23.70
2018-05-12T09:53:07.716Z,31.53
2018-05-12T09:55:35.157Z,26.33
2018-05-12T09:58:02.692Z,19.17
2018-05-12T10:00:30.154Z,20.30
2018-05-12T10:02:57.640Z,15.40
2018-05-12T10:05:25.115Z,17.93
2018-05-12T10:07:57.640Z,21.03
2018-05-12T10:10:25.094Z,20.67
2018-05-12T10:12:52.590Z,12.82
2018-05-12T10:15:20.039Z,17.40
2018-05-12T10:17:47.502Z,15.68
2018-05-12T10:20:14.979Z,12.63
2018-05-12T10:22:42.540Z,10.33
2018-05-12T10:25:10.009Z,10.10
2018-05-12T10:27:37.436Z,9.25
2018-05-12T10:30:04.868Z,9.07
2018-05-12T10:32:32.307Z,8.30
2018-05-12T10:34:59.790Z,9.15
2018-05-12T10:37:27.234Z,10.02
2018-05-12T10:39:54.678Z,8.50
2018-05-12T10:42:22.354Z,9.45
2018-05-12T10:44:49.803Z,7.85
2018-05-12T10:47:17.244Z,9.10
2018-05-12T10:49:44.687Z,9.60
2018-05-12T10:52:12.182Z,12.88
2018-05-12T10:54:39.620Z,8.10
2018-05-12T10:57:07.205Z,12.00
2018-05-12T10:59:34.644Z,10.85
2018-05-12T11:02:02.230Z,15.48
2018-05-12T11:04:29.581Z,12.20
2018-05-12T11:06:57.005Z,9.25
2018-05-12T11:09:24.510Z,9.45
2018-05-12T11:11:51.942Z,11.18
2018-05-12T11:14:19.386Z,9.80
2018-05-12T11:16:46.829Z,7.50
2018-05-12T11:19:14.329Z,7.18
2018-05-12T11:21:41.898Z,7.10
2018-05-12T11:24:09.246Z,7.65
2018-05-12T11:26:36.722Z,10.73
2018-05-12T11:29:04.284Z,9.68
2018-05-12T11:31:31.728Z,6.78
2018-05-12T11:33:59.183Z,6.75
2018-05-12T11:36:26.631Z,6.37
2018-05-12T11:38:54.075Z,6.55
2018-05-12T11:41:21.536Z,6.45
2018-05-12T11:43:49.047Z,5.57
2018-05-12T11:46:16.485Z,4.65
2018-05-12T11:48:43.941Z,5.18
2018-05-12T11:51:11.384Z,4.68
2018-05-12T11:53:38.811Z,4.97
2018-05-12T11:56:06.252Z,4.97
2018-05-12T11:58:33.704Z,4.97
2018-05-12T12:01:01.160Z,6.18
2018-05-12T12:03:28.639Z,5.68
2018-05-12T12:05:56.086Z,8.82
2018-05-12T12:08:23.543Z,5.78
2018-05-12T12:10:51.019Z,3.35
2018-05-12T12:13:18.440Z,4.28
2018-05-12T12:15:45.855Z,3.83
2018-05-12T12:18:13.345Z,3.62
2018-05-12T12:20:40.781Z,3.53
2018-05-12T12:23:08.250Z,4.45
2018-05-12T12:25:35.685Z,5.07
2018-05-12T12:28:03.111Z,3.37
2018-05-12T12:30:30.571Z,3.97
2018-05-12T12:32:58.058Z,3.70
2018-05-12T12:35:25.610Z,3.25
2018-05-12T12:37:53.057Z,3.35
2018-05-12T12:40:20.499Z,4.10
2018-05-12T12:42:47.977Z,4.35
2018-05-12T12:45:15.439Z,3.35
2018-05-12T12:47:42.885Z,5.25
2018-05-12T12:50:10.314Z,3.45
2018-05-12T12:52:37.743Z,3.75
2018-05-12T12:55:05.290Z,3.15
2018-05-12T12:57:32.821Z,3.00
2018-05-12T13:00:00.283Z,2.92
2018-05-12T13:02:27.722Z,3.78
2018-05-12T13:04:55.260Z,3.03
2018-05-12T13:07:22.637Z,2.97
2018-05-12T13:09:50.091Z,3.58
2018-05-12T13:12:17.512Z,3.85
2018-05-12T13:14:44.949Z,2.80
2018-05-12T13:17:12.474Z,4.35
2018-05-12T13:19:39.942Z,3.15
2018-05-12T13:22:07.521Z,3.00
2018-05-12T13:24:34.954Z,2.87
2018-05-12T13:27:02.476Z,3.33
2018-05-12T13:29:29.913Z,3.17
2018-05-12T13:31:57.432Z,4.10
2018-05-12T13:34:24.878Z,2.80
2018-05-12T13:36:52.302Z,3.15
2018-05-12T13:39:19.757Z,3.28
2018-05-12T13:41:47.198Z,3.25
2018-05-12T13:44:14.630Z,4.45
2018-05-12T13:46:42.061Z,4.18
2018-05-12T13:49:09.639Z,3.35
2018-05-12T13:51:37.132Z,3.30
2018-05-12T13:54:04.615Z,3.22
2018-05-12T13:56:32.048Z,3.20
2018-05-12T13:58:59.526Z,3.15
2018-05-12T14:01:26.940Z,3.50
2018-05-12T14:03:54.413Z,3.30
2018-05-12T14:06:21.943Z,3.20
2018-05-12T14:08:49.389Z,3.70
2018-05-12T14:11:16.865Z,3.35
2018-05-12T14:13:44.401Z,3.03
2018-05-12T14:16:11.950Z,3.78
2018-05-12T14:18:39.309Z,3.20
2018-05-12T14:21:06.738Z,2.83
2018-05-12T14:23:34.178Z,3.47
2018-05-12T14:26:01.625Z,2.90
2018-05-12T14:28:29.066Z,3.17
2018-05-12T14:30:56.490Z,3.08
2018-05-12T14:33:23.937Z,2.97
2018-05-12T14:35:51.362Z,2.90
2018-05-12T14:38:18.811Z,3.08
2018-05-12T14:40:46.259Z,2.65
2018-05-12T14:43:13.786Z,2.78
2018-05-12T14:45:41.237Z,3.30
2018-05-12T14:48:08.694Z,3.05
2018-05-12T14:50:36.150Z,3.80
2018-05-12T14:53:04.080Z,3.40
2018-05-12T14:55:31.514Z,3.97
2018-05-12T14:57:58.987Z,6.45
2018-05-12T15:00:26.490Z,4.12
2018-05-12T15:02:53.950Z,4.22
2018-05-12T15:05:21.421Z,3.62
2018-05-12T15:07:48.873Z,3.90
2018-05-12T15:10:16.306Z,4.53
2018-05-12T15:12:43.752Z,4.40
2018-05-12T15:15:11.208Z,5.12
2018-05-12T15:17:38.697Z,3.97
2018-05-12T15:20:06.146Z,4.80
2018-05-12T15:22:33.598Z,4.62
2018-05-12T15:25:01.096Z,3.97
2018-05-12T15:27:28.576Z,4.50
2018-05-12T15:29:56.214Z,3.80
2018-05-12T15:32:23.775Z,4.97
2018-05-12T15:34:51.246Z,5.25
2018-05-12T15:37:18.718Z,4.72
2018-05-12T15:39:46.140Z,4.43
2018-05-12T15:42:13.578Z,4.07
2018-05-12T15:44:41.020Z,4.28
2018-05-12T15:47:08.459Z,3.28
2018-05-12T15:49:35.977Z,4.30
2018-05-12T15:52:03.534Z,3.70
2018-05-12T15:54:30.969Z,3.65
2018-05-12T15:56:58.413Z,3.40
2018-05-12T15:59:25.953Z,3.62
2018-05-12T16:01:53.430Z,3.30
2018-05-12T16:04:20.861Z,3.50
2018-05-12T16:06:48.322Z,4.05
2018-05-12T16:09:15.918Z,3.40
2018-05-12T16:11:43.376Z,5.50
2018-05-12T16:14:10.800Z,5.75
2018-05-12T16:16:38.262Z,5.47
2018-05-12T16:19:06.150Z,6.65
2018-05-12T16:21:33.585Z,6.82
2018-05-12T16:24:01.058Z,4.47
2018-05-12T16:26:28.513Z,3.60
2018-05-12T16:28:55.987Z,3.55
2018-05-12T16:31:23.553Z,3.72
2018-05-12T16:33:50.921Z,3.97
2018-05-12T16:36:18.355Z,4.10
2018-05-12T16:38:45.776Z,3.47
2018-05-12T16:41:13.276Z,4.60
2018-05-12T16:43:40.794Z,4.55
2018-05-12T16:46:08.273Z,4.43
2018-05-12T16:48:35.708Z,9.98
2018-05-12T16:51:03.384Z,3.53
2018-05-12T16:53:30.737Z,4.78
2018-05-12T16:55:58.168Z,5.72
2018-05-12T16:58:25.666Z,4.25
2018-05-12T17:00:53.127Z,4.12
2018-05-12T17:03:20.649Z,4.50
2018-05-12T17:05:48.034Z,4.10
2018-05-12T17:08:15.537Z,3.83
2018-05-12T17:10:43.050Z,4.45
2018-05-12T17:13:10.540Z,3.55
2018-05-12T17:15:37.926Z,4.47
2018-05-12T17:18:05.367Z,4.65
2018-05-12T17:20:32.995Z,4.03
2018-05-12T17:23:00.464Z,6.90
2018-05-12T17:25:27.913Z,5.03
2018-05-12T17:27:55.347Z,3.97
2018-05-12T17:30:22.795Z,5.10
2018-05-12T17:32:50.376Z,5.32
2018-05-12T17:35:17.850Z,4.65
2018-05-12T17:37:45.337Z,5.20
2018-05-12T17:40:12.850Z,6.87
2018-05-12T17:42:40.289Z,4.37
2018-05-12T17:45:07.750Z,5.75
2018-05-12T17:47:35.204Z,6.12
2018-05-12T17:50:02.776Z,6.20
2018-05-12T17:52:30.122Z,5.97
2018-05-12T17:54:57.593Z,6.12
2018-05-12T17:57:25.024Z,5.45
2018-05-12T17:59:52.465Z,5.82
2018-05-12T18:02:19.905Z,5.22
2018-05-12T18:04:47.427Z,5.87
2018-05-12T18:07:14.989Z,6.05
2018-05-12T18:12:07.017Z,5.45
2018-05-12T18:14:34.468Z,5.78
2018-05-12T18:17:01.946Z,5.77
2018-05-12T18:19:29.399Z,6.10
2018-05-12T18:21:56.875Z,5.67
2018-05-12T18:24:24.412Z,6.17
2018-05-12T18:26:51.936Z,4.97
2018-05-12T18:29:19.400Z,5.50
2018-05-12T18:31:46.831Z,5.70
2018-05-12T18:34:14.325Z,6.20
2018-05-12T18:36:41.793Z,6.13
2018-05-12T18:39:09.267Z,6.40
2018-05-12T18:41:36.702Z,6.43
2018-05-12T18:44:04.129Z,5.67
2018-05-12T18:46:31.592Z,5.87
2018-05-12T18:48:59.718Z,5.50
2018-05-12T18:51:27.146Z,5.60
2018-05-12T18:53:54.564Z,5.20
2018-05-12T18:56:21.994Z,4.80
2018-05-12T18:58:49.426Z,5.40
2018-05-12T19:01:16.836Z,4.93
2018-05-12T19:03:44.295Z,6.63
2018-05-12T19:06:11.846Z,5.47
2018-05-12T19:08:39.364Z,5.87
2018-05-12T19:11:06.928Z,8.57
2018-05-12T19:13:34.393Z,5.80
2018-05-12T19:16:01.808Z,6.43
2018-05-12T19:18:29.255Z,6.10
2018-05-12T19:20:56.702Z,7.47
2018-05-12T19:23:24.147Z,7.60
2018-05-12T19:25:51.594Z,6.80
2018-05-12T19:28:19.027Z,6.97
2018-05-12T19:30:46.578Z,9.10
2018-05-12T19:33:14.024Z,6.53
2018-05-12T19:35:41.486Z,6.33
2018-05-12T19:38:08.912Z,5.67
2018-05-12T19:40:36.363Z,8.17
2018-05-12T19:43:03.966Z,7.50
2018-05-12T19:45:31.392Z,7.23
2018-05-12T19:47:58.846Z,6.77
2018-05-12T19:50:26.334Z,6.83
2018-05-12T19:52:53.762Z,7.50
2018-05-12T19:55:21.207Z,6.23
2018-05-12T19:57:48.707Z,6.17
2018-05-12T20:00:16.168Z,6.53
2018-05-12T20:02:43.691Z,6.20
2018-05-12T20:05:11.113Z,7.97
2018-05-12T20:07:38.642Z,6.50
2018-05-12T20:10:06.120Z,7.33
2018-05-12T20:12:33.556Z,7.47
2018-05-12T20:15:01.014Z,6.70
2018-05-12T20:17:28.460Z,7.93
2018-05-12T20:19:55.937Z,6.53
2018-05-12T20:22:23.522Z,6.73
2018-05-12T20:24:51.059Z,6.70
2018-05-12T20:27:18.500Z,7.17
2018-05-12T20:29:45.994Z,7.47
2018-05-12T20:32:13.888Z,6.90
2018-05-12T20:34:41.445Z,5.80
2018-05-12T20:37:08.954Z,7.03
2018-05-12T20:39:36.439Z,6.80
2018-05-12T20:42:04.105Z,6.73
2018-05-12T20:44:31.543Z,6.70
2018-05-12T20:46:59.091Z,7.47
2018-05-12T20:49:26.610Z,7.17
2018-05-12T20:51:54.702Z,8.03
2018-05-12T20:54:22.201Z,8.40
2018-05-12T20:56:49.662Z,8.00
2018-05-12T20:59:17.141Z,8.23
2018-05-12T21:01:44.609Z,7.90
2018-05-12T21:04:12.058Z,8.67
2018-05-12T21:06:39.554Z,7.47
2018-05-12T21:09:06.991Z,7.57
2018-05-12T21:11:34.466Z,7.80
2018-05-12T21:14:01.905Z,9.77
2018-05-12T21:16:29.354Z,9.07
2018-05-12T21:18:57.029Z,8.00
2018-05-12T21:21:24.508Z,8.33
2018-05-12T21:23:52.004Z,8.10
2018-05-12T21:26:19.418Z,10.67
2018-05-12T21:28:46.868Z,9.33
2018-05-12T21:31:14.565Z,7.63
2018-05-12T21:33:42.046Z,8.07
2018-05-12T21:36:09.527Z,9.80
2018-05-12T21:38:36.986Z,8.17
2018-05-12T21:41:04.435Z,8.93
2018-05-12T21:43:31.901Z,8.63
2018-05-12T21:45:59.638Z,9.67
2018-05-12T21:48:27.189Z,7.80
2018-05-12T21:50:54.659Z,9.60
2018-05-12T21:53:22.161Z,9.90
2018-05-12T21:55:49.721Z,9.17
2018-05-12T21:58:17.162Z,11.93
2018-05-12T22:00:44.594Z,11.10
2018-05-12T22:03:12.125Z,11.87
2018-05-12T22:05:39.684Z,11.03
2018-05-12T22:08:08.218Z,9.17
2018-05-12T22:10:35.672Z,14.67
2018-05-12T22:13:03.202Z,8.40
2018-05-12T22:15:30.663Z,8.50
2018-05-12T22:17:58.105Z,8.20
2018-05-12T22:20:25.599Z,8.07
2018-05-12T22:22:53.065Z,7.60
2018-05-12T22:25:20.856Z,7.23
2018-05-12T22:27:48.326Z,7.80
2018-05-12T22:30:15.875Z,7.03
2018-05-12T22:32:43.346Z,7.97
2018-05-12T22:35:10.909Z,7.47
2018-05-12T22:37:38.588Z,6.90
2018-05-12T22:40:06.012Z,9.70
2018-05-12T22:42:33.526Z,7.23
2018-05-12T22:45:00.995Z,6.73
2018-05-12T22:47:28.447Z,9.07
2018-05-12T22:49:55.918Z,7.77
2018-05-12T22:52:23.543Z,5.80
2018-05-12T22:54:51.002Z,7.70
2018-05-12T22:57:18.531Z,7.00
2018-05-12T22:59:46.086Z,8.13
2018-05-12T23:02:13.597Z,8.03
2018-05-12T23:04:41.116Z,7.13
2018-05-12T23:07:08.640Z,7.23
2018-05-12T23:09:36.106Z,8.87
2018-05-12T23:12:03.556Z,7.53
2018-05-12T23:14:31.071Z,7.50
2018-05-12T23:16:58.608Z,5.87
2018-05-12T23:19:26.068Z,6.23
2018-05-12T23:21:54.060Z,7.00
2018-05-12T23:24:21.522Z,7.33
2018-05-12T23:26:49.019Z,7.70
2018-05-12T23:29:16.503Z,6.20
2018-05-12T23:31:44.026Z,6.57
2018-05-12T23:34:11.469Z,6.13
2018-05-12T23:36:38.941Z,7.33
2018-05-12T23:39:06.432Z,7.13
2018-05-12T23:41:33.879Z,7.10
2018-05-12T23:44:01.357Z,9.40
2018-05-12T23:46:28.912Z,8.30
2018-05-12T23:48:56.416Z,8.13
2018-05-12T23:51:24.032Z,7.07
2018-05-12T23:53:51.480Z,7.80
2018-05-12T23:56:18.998Z,6.73
2018-05-12T23:58:46.433Z,7.67
